Tuuli Mistä: 21-08-2018 10:00 Mihin asti: 19:00 Varoitus: Tuuli Taso: Keltainen info button
suomi:
Tuulivaroitus maa-alueille: Luoteistuuli on voimakasta iltapäivällä ja illalla, tuulen nopeus puuskissa 15 m/s.

Lähimmät METAR asemat

 

EFPO - Pori (mil/Civ), Finland
Distance from station: PLU 42km
Päivitetty: 21/08/2018 03:20
Selkeätä
Selkeätä
 Wind from LU
Tuuli: LU 13 km/h
Lämpötila: 12°C
Kastepiste: 8°C
Kosteus: 77%
Ilmanpaine: 1005 hPa
Yhteenveto: Selkeätä
Visibility: greater than 10 km
2018/08/21 00:20 EFPO 210020Z AUTO 32007KT CAVOK 12/08 Q1005
EFTU - Turku/Abo, Finland
Distance from station: E 68km
Päivitetty: 21/08/2018 03:20
Few Clouds
Few Clouds
 Wind from L
Tuuli: L 9 km/h
Lämpötila: 10°C
Wind Chill: 9°C
Kastepiste: 8°C
Kosteus: 88%
Ilmanpaine: 1005 hPa
Clouds: Few Clouds
Visibility: 10 km
Cloud details: Few Clouds 945 m
2018/08/21 00:20 EFTU 210020Z AUTO 28005KT 9999 FEW031/// 10/08 Q1005
 
EFTP - Tampere/Pirkkala, Finland
Distance from station: IKO 84km
Päivitetty: 21/08/2018 03:20
Selkeätä
Selkeätä
 Wind from LU
Tuuli: LU 9 km/h
Lämpötila: 10°C
Wind Chill: 9°C
Kastepiste: 9°C
Kosteus: 94%
Ilmanpaine: 1004 hPa
Yhteenveto: Selkeätä
Visibility: greater than 10 km
2018/08/21 00:20 EFTP 210020Z AUTO 31005KT 270V340 CAVOK 10/09 Q1004